Lenox, Michigan
Current Conditions -  °F | °C
As of 6:55 PM on Sunday 25 Jan 2015 (Local Time) from KMTC Reporting Station
Overcast Overcast  
Wind Chill: -14°   Ceiling: 17000
Heat Index: -7°   Visibility: 12mi
Dew Point: -13°   Wind: 10mph
Humidity: 64%   Direction: 60°ENE
Pressure: 29.95"   Gusts: NA
Location:  42.7851°N, 82.803°W
Report Text: KMTC 252355Z 06009KT 12SM SCT140 OVC170 M07/M13 A2995 RMK SLP160 4/001 T10731130 11033 21073 51014
Loading
Personal Weather Stations






























Interactive Weather Map New forecast layout! Learn more

10-Day Weather Forecast

Advertisements
Track Severe Weather on mobile